createdAt,value
2022-08-18T00:02:25.046Z,20.80
2022-08-18T00:04:57.114Z,24.60
2022-08-18T00:07:33.825Z,23.98
2022-08-18T00:10:01.426Z,24.52
2022-08-18T00:12:33.806Z,22.17
2022-08-18T00:15:05.508Z,26.45
2022-08-18T00:17:33.455Z,19.88
2022-08-18T00:20:00.705Z,21.98
2022-08-18T00:22:27.903Z,21.63
2022-08-18T00:24:57.267Z,21.33
2022-08-18T00:27:28.469Z,21.98
2022-08-18T00:29:57.963Z,20.27
2022-08-18T00:32:34.786Z,21.40
2022-08-18T00:35:13.651Z,27.40
2022-08-18T00:37:41.534Z,23.88
2022-08-18T00:40:10.982Z,21.70
2022-08-18T00:42:48.134Z,19.02
2022-08-18T00:45:18.823Z,20.60
2022-08-18T00:47:45.774Z,24.17
2022-08-18T00:50:42.609Z,22.08
2022-08-18T00:53:19.378Z,19.25
2022-08-18T00:55:54.305Z,26.00
2022-08-18T00:58:38.266Z,23.70
2022-08-18T01:01:07.222Z,18.55
2022-08-18T01:03:36.440Z,25.63
2022-08-18T01:06:14.939Z,22.45
2022-08-18T01:08:41.933Z,21.60
2022-08-18T01:11:09.382Z,27.70
2022-08-18T01:13:38.816Z,17.80
2022-08-18T01:16:25.758Z,21.35
2022-08-18T01:19:11.243Z,19.83
2022-08-18T01:21:53.467Z,24.77
2022-08-18T01:24:47.386Z,22.73
2022-08-18T01:27:18.298Z,22.50
2022-08-18T01:29:47.020Z,20.88
2022-08-18T01:32:20.596Z,27.25
2022-08-18T01:34:49.640Z,20.48
2022-08-18T01:37:19.299Z,19.48
2022-08-18T01:41:22.004Z,19.83
2022-08-18T01:42:36.643Z,24.98
2022-08-18T01:45:06.087Z,22.80
2022-08-18T01:47:48.028Z,22.17
2022-08-18T01:50:21.629Z,25.20
2022-08-18T01:52:50.050Z,23.90
2022-08-18T01:55:18.307Z,20.63
2022-08-18T01:57:46.022Z,26.45
2022-08-18T02:00:15.403Z,20.52
2022-08-18T02:02:42.629Z,21.10
2022-08-18T02:05:14.980Z,24.83
2022-08-18T02:07:42.614Z,19.23
2022-08-18T02:10:12.474Z,26.90
2022-08-18T02:15:11.391Z,20.30
2022-08-18T02:17:43.792Z,22.40
2022-08-18T02:20:13.393Z,25.67
2022-08-18T02:22:41.004Z,25.13
2022-08-18T02:25:08.747Z,21.08
2022-08-18T02:27:35.741Z,24.52
2022-08-18T02:30:08.002Z,22.90
2022-08-18T02:32:34.959Z,22.10
2022-08-18T02:35:01.871Z,21.75
2022-08-18T02:37:28.794Z,24.15
2022-08-18T02:39:55.836Z,23.02
2022-08-18T02:42:22.827Z,27.13
2022-08-18T02:44:49.729Z,23.63
2022-08-18T02:47:22.174Z,26.50
2022-08-18T02:49:49.501Z,23.45
2022-08-18T02:52:17.370Z,24.52
2022-08-18T02:54:44.693Z,25.17
2022-08-18T02:57:12.656Z,22.35
2022-08-18T02:59:40.807Z,24.40
2022-08-18T03:02:09.714Z,20.55
2022-08-18T03:04:36.842Z,21.63
2022-08-18T03:07:05.957Z,21.10
2022-08-18T03:09:34.640Z,20.63
2022-08-18T03:12:02.072Z,22.27
2022-08-18T03:14:29.416Z,23.50
2022-08-18T03:16:56.355Z,21.67
2022-08-18T03:19:28.419Z,22.55
2022-08-18T03:21:59.338Z,26.17
2022-08-18T03:24:30.153Z,27.08
2022-08-18T03:26:57.363Z,29.60
2022-08-18T03:29:29.549Z,23.38
2022-08-18T03:32:00.315Z,22.83
2022-08-18T03:34:27.192Z,24.30
2022-08-18T03:36:54.344Z,21.45
2022-08-18T03:39:23.631Z,24.70
2022-08-18T03:41:58.241Z,31.60
2022-08-18T03:44:32.627Z,27.40
2022-08-18T03:47:02.820Z,23.73
2022-08-18T03:49:31.297Z,20.30
2022-08-18T03:52:00.997Z,24.13
2022-08-18T03:54:28.475Z,25.25
2022-08-18T03:56:56.055Z,25.80
2022-08-18T03:59:25.667Z,22.90
2022-08-18T04:01:55.017Z,26.85
2022-08-18T04:04:25.030Z,22.60
2022-08-18T04:06:58.569Z,24.85
2022-08-18T04:09:28.039Z,23.45
2022-08-18T04:11:55.659Z,22.02
2022-08-18T04:14:24.991Z,27.85
2022-08-18T04:16:52.450Z,25.55
2022-08-18T04:19:23.132Z,34.78
2022-08-18T04:21:54.057Z,23.33
2022-08-18T04:24:21.345Z,22.63
2022-08-18T04:26:48.607Z,27.30
2022-08-18T04:29:17.462Z,27.55
2022-08-18T04:31:44.828Z,25.98
2022-08-18T04:34:12.455Z,23.05
2022-08-18T04:36:39.438Z,25.05
2022-08-18T04:39:08.342Z,27.58
2022-08-18T04:41:36.716Z,29.67
2022-08-18T04:44:06.326Z,27.35
2022-08-18T04:46:46.234Z,25.08
2022-08-18T04:49:13.107Z,23.05
2022-08-18T04:52:36.994Z,25.70
2022-08-18T04:54:54.880Z,28.15
2022-08-18T04:57:22.986Z,27.02
2022-08-18T04:59:52.243Z,32.80
2022-08-18T05:02:20.239Z,28.02
2022-08-18T05:04:47.264Z,24.67
2022-08-18T05:07:16.941Z,28.02
2022-08-18T05:09:43.869Z,28.00
2022-08-18T05:12:14.256Z,23.88
2022-08-18T05:14:42.016Z,23.30
2022-08-18T05:17:08.980Z,31.08
2022-08-18T05:19:35.847Z,33.05
2022-08-18T05:22:09.164Z,23.98
2022-08-18T05:24:39.592Z,23.33
2022-08-18T05:27:07.603Z,22.20
2022-08-18T05:29:41.472Z,26.77
2022-08-18T05:32:08.472Z,32.72
2022-08-18T05:34:36.140Z,24.80
2022-08-18T05:37:24.748Z,26.35
2022-08-18T05:39:54.497Z,26.60
2022-08-18T05:42:22.892Z,29.13
2022-08-18T05:44:51.217Z,30.40
2022-08-18T05:47:22.209Z,33.22
2022-08-18T05:49:49.500Z,33.23
2022-08-18T05:52:37.609Z,31.63
2022-08-18T05:55:34.617Z,34.10
2022-08-18T05:58:24.284Z,31.80
2022-08-18T06:01:06.455Z,38.25
2022-08-18T06:03:46.610Z,33.47
2022-08-18T06:06:24.453Z,38.22
2022-08-18T06:09:03.830Z,36.35
2022-08-18T06:11:30.632Z,42.63
2022-08-18T06:13:59.508Z,39.35
2022-08-18T06:16:29.861Z,29.83
2022-08-18T06:19:36.084Z,29.17
2022-08-18T06:22:31.265Z,33.15
2022-08-18T06:25:04.156Z,29.17
2022-08-18T06:27:39.605Z,32.72
2022-08-18T06:30:41.497Z,31.85
2022-08-18T06:35:52.966Z,36.08
2022-08-18T06:38:45.871Z,37.38
2022-08-18T06:41:40.407Z,31.83
2022-08-18T06:44:37.767Z,27.02
2022-08-18T06:47:12.428Z,29.65
2022-08-18T06:49:56.437Z,26.92
2022-08-18T06:52:33.646Z,35.63
2022-08-18T06:55:16.265Z,32.70
2022-08-18T06:58:01.426Z,30.15
2022-08-18T07:00:32.712Z,28.98
2022-08-18T07:03:18.223Z,28.85
2022-08-18T07:06:10.463Z,33.33
2022-08-18T07:08:44.748Z,22.23
2022-08-18T07:11:20.335Z,33.55
2022-08-18T07:14:03.640Z,32.13
2022-08-18T07:16:57.822Z,26.60
2022-08-18T07:19:32.063Z,16.13
2022-08-18T07:22:39.083Z,25.27
2022-08-18T07:25:06.966Z,19.50
2022-08-18T07:27:49.247Z,20.77
2022-08-18T07:30:21.890Z,18.73
2022-08-18T07:32:53.301Z,12.13
2022-08-18T07:35:36.320Z,16.45
2022-08-18T07:38:42.746Z,23.13
2022-08-18T07:41:24.208Z,14.30
2022-08-18T07:44:13.568Z,19.92
2022-08-18T07:47:02.080Z,18.52
2022-08-18T07:49:35.542Z,12.75
2022-08-18T07:52:35.870Z,13.85
2022-08-18T07:55:02.323Z,13.98
2022-08-18T07:57:54.409Z,16.85
2022-08-18T08:00:57.117Z,11.98
2022-08-18T08:03:33.993Z,16.55
2022-08-18T08:06:20.364Z,12.75
2022-08-18T08:08:52.468Z,20.92
2022-08-18T08:11:30.594Z,15.05
2022-08-18T08:14:04.479Z,16.63
2022-08-18T08:16:57.989Z,18.52
2022-08-18T08:19:59.028Z,18.17
2022-08-18T08:23:09.438Z,20.42
2022-08-18T08:25:48.547Z,16.50
2022-08-18T08:28:26.820Z,15.23
2022-08-18T08:34:14.731Z,13.27
2022-08-18T08:36:45.101Z,14.95
2022-08-18T08:39:20.074Z,16.20
2022-08-18T08:42:29.196Z,14.85
2022-08-18T08:44:59.969Z,15.43
2022-08-18T08:47:53.506Z,19.42
2022-08-18T08:50:23.287Z,14.00
2022-08-18T08:52:56.834Z,12.30
2022-08-18T08:55:27.774Z,16.60
2022-08-18T08:58:12.360Z,21.77
2022-08-18T09:03:50.324Z,13.30
2022-08-18T09:06:46.119Z,11.13
2022-08-18T09:09:45.899Z,18.33
2022-08-18T09:12:40.058Z,16.88
2022-08-18T09:15:29.346Z,11.32
2022-08-18T09:17:58.909Z,15.57
2022-08-18T09:20:36.779Z,16.10
2022-08-18T09:23:21.260Z,15.48
2022-08-18T09:25:52.054Z,16.63
2022-08-18T09:28:58.837Z,40.75
2022-08-18T09:31:28.082Z,20.38
2022-08-18T09:34:32.084Z,18.00
2022-08-18T09:37:21.491Z,14.70
2022-08-18T09:40:33.376Z,14.77
2022-08-18T09:43:15.810Z,13.38
2022-08-18T09:45:47.172Z,16.60
2022-08-18T09:48:20.798Z,15.43
2022-08-18T09:51:15.613Z,13.27
2022-08-18T09:53:47.801Z,14.18
2022-08-18T09:56:19.872Z,12.83
2022-08-18T09:59:10.828Z,14.25
2022-08-18T10:01:43.368Z,13.85
2022-08-18T10:04:48.966Z,12.70
2022-08-18T10:07:20.563Z,20.52
2022-08-18T10:09:59.436Z,8.13
2022-08-18T10:12:57.226Z,10.05
2022-08-18T10:15:36.088Z,19.67
2022-08-18T10:18:21.260Z,11.30
2022-08-18T10:21:10.371Z,18.10
2022-08-18T10:24:29.270Z,14.88
2022-08-18T10:26:57.929Z,11.98
2022-08-18T10:29:28.687Z,11.02
2022-08-18T10:32:01.396Z,14.88
2022-08-18T10:34:51.774Z,9.75
2022-08-18T10:37:43.513Z,12.40
2022-08-18T10:40:13.332Z,14.25
2022-08-18T10:43:00.674Z,18.13
2022-08-18T10:45:30.506Z,11.68
2022-08-18T10:48:34.424Z,10.15
2022-08-18T10:51:22.959Z,11.02
2022-08-18T10:54:32.393Z,9.98
2022-08-18T10:57:35.669Z,11.60
2022-08-18T11:00:13.460Z,10.40
2022-08-18T11:03:29.869Z,10.93
2022-08-18T11:05:49.976Z,8.55
2022-08-18T11:08:20.203Z,10.85
2022-08-18T11:11:27.677Z,11.27
2022-08-18T11:13:52.333Z,11.20
2022-08-18T11:16:44.688Z,14.70
2022-08-18T11:19:14.396Z,10.70
2022-08-18T11:23:03.543Z,11.32
2022-08-18T11:25:34.924Z,22.23
2022-08-18T11:28:21.228Z,15.48
2022-08-18T11:30:53.421Z,14.35
2022-08-18T11:33:22.881Z,14.30
2022-08-18T11:38:31.277Z,14.27
2022-08-18T11:41:23.183Z,13.13
2022-08-18T11:43:59.761Z,15.65
2022-08-18T11:46:42.956Z,10.60
2022-08-18T11:49:33.739Z,10.70
2022-08-18T11:52:29.062Z,11.70
2022-08-18T11:55:16.449Z,10.40
2022-08-18T11:57:58.765Z,10.07
2022-08-18T12:00:47.989Z,10.07
2022-08-18T12:03:28.400Z,13.85
2022-08-18T12:06:01.120Z,9.35
2022-08-18T12:09:02.678Z,14.55
2022-08-18T12:17:19.514Z,9.43
2022-08-18T12:19:47.925Z,10.27
2022-08-18T12:22:23.257Z,12.95
2022-08-18T12:24:51.507Z,13.75
2022-08-18T12:27:23.646Z,10.57
2022-08-18T12:29:53.683Z,13.45
2022-08-18T12:32:46.749Z,16.05
2022-08-18T12:35:13.003Z,18.23
2022-08-18T12:38:11.289Z,9.73
2022-08-18T12:40:32.613Z,12.98
2022-08-18T12:43:00.149Z,18.98
2022-08-18T12:45:28.273Z,22.85
2022-08-18T12:47:55.999Z,15.77
2022-08-18T12:50:31.037Z,12.98
2022-08-18T12:52:59.754Z,14.00
2022-08-18T12:55:31.648Z,15.25
2022-08-18T12:57:59.135Z,24.20
2022-08-18T13:00:29.293Z,11.98
2022-08-18T13:02:57.624Z,15.52
2022-08-18T13:05:27.721Z,13.73
2022-08-18T13:08:04.171Z,15.57
2022-08-18T13:10:42.849Z,18.15
2022-08-18T13:13:15.781Z,20.73
2022-08-18T13:15:44.486Z,12.43
2022-08-18T13:18:27.180Z,12.00
2022-08-18T13:20:58.521Z,13.23
2022-08-18T13:23:27.595Z,16.08
2022-08-18T13:26:01.743Z,13.55
2022-08-18T13:28:35.778Z,14.15
2022-08-18T13:31:05.583Z,14.30
2022-08-18T13:33:35.282Z,15.80
2022-08-18T13:36:22.565Z,17.42
2022-08-18T13:38:54.675Z,9.57
2022-08-18T13:43:52.376Z,13.15
2022-08-18T13:46:24.068Z,10.52
2022-08-18T13:49:02.297Z,13.50
2022-08-18T13:51:30.315Z,10.07
2022-08-18T13:54:18.372Z,13.15
2022-08-18T13:56:51.536Z,9.68
2022-08-18T13:59:22.748Z,15.52
2022-08-18T14:01:53.336Z,15.05
2022-08-18T14:04:22.540Z,11.43
2022-08-18T14:06:57.011Z,10.90
2022-08-18T14:09:36.055Z,11.38
2022-08-18T14:12:15.678Z,13.30
2022-08-18T14:14:52.439Z,13.82
2022-08-18T14:17:22.416Z,16.85
2022-08-18T14:20:14.960Z,9.98
2022-08-18T14:23:01.472Z,10.23
2022-08-18T14:25:49.396Z,13.23
2022-08-18T14:28:24.863Z,11.02
2022-08-18T14:30:54.870Z,12.43
2022-08-18T14:33:34.605Z,9.25
2022-08-18T14:36:13.934Z,13.35
2022-08-18T14:38:41.391Z,12.18
2022-08-18T14:41:12.142Z,13.20
2022-08-18T14:44:11.584Z,10.00
2022-08-18T14:46:30.542Z,11.85
2022-08-18T14:49:00.278Z,10.90
2022-08-18T14:51:33.688Z,12.63
2022-08-18T14:54:01.693Z,23.23
2022-08-18T14:56:29.494Z,9.93
2022-08-18T14:58:56.929Z,9.75
2022-08-18T15:01:26.695Z,14.95
2022-08-18T15:03:55.102Z,25.52
2022-08-18T15:06:27.181Z,11.40
2022-08-18T15:11:25.108Z,11.88
2022-08-18T15:13:55.649Z,14.18
2022-08-18T15:16:26.959Z,10.85
2022-08-18T15:18:58.990Z,14.70
2022-08-18T15:21:44.825Z,13.18
2022-08-18T15:24:32.158Z,14.23
2022-08-18T15:27:10.235Z,10.27
2022-08-18T15:29:41.561Z,13.45
2022-08-18T15:32:15.226Z,13.32
2022-08-18T15:34:47.221Z,14.23
2022-08-18T15:37:24.067Z,12.75
2022-08-18T15:40:02.931Z,9.30
2022-08-18T15:42:30.358Z,16.33
2022-08-18T15:45:11.973Z,12.02
2022-08-18T15:47:41.459Z,14.35
2022-08-18T15:50:21.881Z,11.13
2022-08-18T15:53:00.682Z,13.52
2022-08-18T15:55:35.924Z,19.63
2022-08-18T15:58:10.796Z,15.43
2022-08-18T16:00:45.397Z,10.52
2022-08-18T16:03:15.294Z,12.90
2022-08-18T16:05:54.986Z,16.50
2022-08-18T16:08:25.287Z,11.73
2022-08-18T16:10:53.810Z,10.45
2022-08-18T16:13:23.844Z,13.60
2022-08-18T16:15:50.895Z,11.75
2022-08-18T16:18:20.960Z,10.57
2022-08-18T16:20:48.689Z,12.40
2022-08-18T16:23:20.071Z,14.35
2022-08-18T16:25:46.996Z,15.25
2022-08-18T16:28:13.984Z,12.60
2022-08-18T16:30:41.816Z,18.90
2022-08-18T16:33:09.469Z,14.23
2022-08-18T16:35:37.540Z,16.17
2022-08-18T16:38:09.535Z,9.88
2022-08-18T16:40:37.604Z,16.48
2022-08-18T16:43:05.857Z,17.77
2022-08-18T16:45:35.869Z,22.25
2022-08-18T16:48:03.393Z,15.07
2022-08-18T16:50:30.486Z,10.80
2022-08-18T16:52:58.342Z,10.02
2022-08-18T16:55:25.570Z,16.58
2022-08-18T16:58:15.291Z,12.02
2022-08-18T17:01:01.593Z,13.40
2022-08-18T17:03:47.458Z,14.57
2022-08-18T17:06:18.332Z,22.02
2022-08-18T17:08:46.335Z,10.70
2022-08-18T17:11:18.084Z,12.07
2022-08-18T17:13:48.354Z,18.30
2022-08-18T17:16:18.860Z,22.90
2022-08-18T17:18:47.162Z,15.20
2022-08-18T17:21:18.562Z,14.85
2022-08-18T17:23:46.625Z,9.98
2022-08-18T17:26:26.205Z,13.93
2022-08-18T17:29:07.948Z,10.82
2022-08-18T17:31:35.331Z,9.30
2022-08-18T17:34:12.404Z,14.57
2022-08-18T17:36:53.827Z,14.15
2022-08-18T17:39:29.024Z,19.88
2022-08-18T17:42:14.941Z,16.20
2022-08-18T17:44:52.107Z,14.95
2022-08-18T17:47:26.983Z,11.75
2022-08-18T17:50:28.391Z,15.73
2022-08-18T17:53:05.469Z,16.80
2022-08-18T17:55:59.995Z,16.83
2022-08-18T17:58:40.578Z,12.13
2022-08-18T18:01:10.802Z,11.32
2022-08-18T18:03:38.131Z,12.00
2022-08-18T18:06:38.051Z,21.02
2022-08-18T18:09:29.059Z,18.63
2022-08-18T18:11:56.557Z,10.93
2022-08-18T18:14:38.272Z,12.95
2022-08-18T18:19:49.412Z,18.98
2022-08-18T18:22:24.089Z,14.02
2022-08-18T18:25:07.848Z,16.30
2022-08-18T18:27:48.516Z,12.40
2022-08-18T18:30:16.991Z,13.13
2022-08-18T18:33:15.941Z,10.75
2022-08-18T18:35:57.097Z,11.18
2022-08-18T18:38:36.773Z,12.52
2022-08-18T18:41:26.515Z,9.05
2022-08-18T18:44:10.882Z,13.43
2022-08-18T18:46:44.283Z,12.25
2022-08-18T18:49:53.578Z,15.85
2022-08-18T18:52:37.138Z,11.73
2022-08-18T18:55:22.197Z,10.55
2022-08-18T18:58:30.261Z,15.07
2022-08-18T19:01:03.037Z,19.05
2022-08-18T19:03:52.594Z,17.02
2022-08-18T19:06:22.571Z,19.23
2022-08-18T19:09:50.307Z,17.60
2022-08-18T19:12:52.610Z,15.13
2022-08-18T19:15:21.785Z,14.68
2022-08-18T19:19:38.206Z,17.33
2022-08-18T19:22:03.505Z,15.57
2022-08-18T19:24:42.874Z,17.83
2022-08-18T19:27:24.511Z,15.35
2022-08-18T19:29:55.697Z,11.13
2022-08-18T19:32:38.036Z,21.33
2022-08-18T19:35:12.158Z,17.13
2022-08-18T19:38:36.790Z,13.43
2022-08-18T19:41:28.973Z,13.18
2022-08-18T19:44:29.237Z,19.67
2022-08-18T19:47:13.546Z,17.13
2022-08-18T19:50:18.296Z,19.42
2022-08-18T19:53:10.146Z,17.30
2022-08-18T19:56:25.953Z,26.33
2022-08-18T19:59:52.661Z,15.20
2022-08-18T20:03:21.753Z,18.33
2022-08-18T20:06:33.362Z,15.65
2022-08-18T20:09:34.256Z,23.52
2022-08-18T20:12:20.736Z,29.65
2022-08-18T20:15:18.270Z,22.20
2022-08-18T20:17:57.174Z,24.58
2022-08-18T20:20:38.116Z,29.88
2022-08-18T20:23:59.639Z,44.60
2022-08-18T20:26:38.709Z,39.10
2022-08-18T20:29:33.048Z,32.40
2022-08-18T20:32:04.972Z,28.95
2022-08-18T20:34:35.373Z,22.80
2022-08-18T20:37:20.665Z,21.35
2022-08-18T20:40:07.253Z,20.48
2022-08-18T20:42:35.393Z,22.30
2022-08-18T20:45:14.347Z,18.13
2022-08-18T20:48:13.125Z,20.50
2022-08-18T20:51:12.565Z,24.50
2022-08-18T20:54:18.666Z,18.25
2022-08-18T20:57:02.693Z,20.05
2022-08-18T21:00:26.770Z,19.42
2022-08-18T21:02:59.910Z,20.05
2022-08-18T21:05:38.261Z,17.65
2022-08-18T21:08:17.305Z,26.45
2022-08-18T21:11:05.695Z,20.33
2022-08-18T21:13:41.822Z,24.33
2022-08-18T21:16:38.698Z,23.25
2022-08-18T21:19:23.696Z,18.55
2022-08-18T21:21:59.377Z,19.85
2022-08-18T21:24:39.058Z,21.48
2022-08-18T21:27:36.115Z,18.42
2022-08-18T21:30:24.794Z,19.80
2022-08-18T21:32:52.635Z,23.02
2022-08-18T21:35:38.536Z,18.20
2022-08-18T21:38:12.638Z,16.17
2022-08-18T21:40:48.113Z,16.30
2022-08-18T21:43:59.172Z,15.38
2022-08-18T21:46:30.067Z,17.23
2022-08-18T21:49:14.833Z,24.80
2022-08-18T21:51:50.108Z,20.80
2022-08-18T21:54:31.649Z,20.27
2022-08-18T21:57:27.570Z,19.48
2022-08-18T22:00:29.231Z,24.77
2022-08-18T22:03:25.163Z,24.08
2022-08-18T22:06:35.291Z,21.50
2022-08-18T22:09:31.724Z,24.00
2022-08-18T22:12:47.424Z,29.77
2022-08-18T22:15:16.780Z,21.15
2022-08-18T22:17:54.349Z,19.35
2022-08-18T22:20:53.176Z,20.65
2022-08-18T22:23:54.253Z,15.00
2022-08-18T22:26:32.635Z,20.52
2022-08-18T22:29:42.435Z,15.70
2022-08-18T22:32:13.907Z,20.23
2022-08-18T22:34:41.390Z,18.92
2022-08-18T22:37:19.257Z,16.35
2022-08-18T22:40:01.244Z,17.15
2022-08-18T22:42:33.125Z,16.23
2022-08-18T22:50:23.892Z,19.15
2022-08-18T22:52:51.178Z,15.00
2022-08-18T22:55:21.768Z,18.95
2022-08-18T22:57:55.785Z,20.77
2022-08-18T23:00:25.444Z,16.77
2022-08-18T23:02:54.858Z,18.77
2022-08-18T23:05:22.171Z,18.65
2022-08-18T23:07:49.934Z,24.52
2022-08-18T23:10:17.698Z,21.20
2022-08-18T23:12:47.182Z,21.00
2022-08-18T23:15:17.386Z,19.77
2022-08-18T23:17:44.515Z,22.05
2022-08-18T23:20:17.857Z,21.77
2022-08-18T23:22:47.889Z,21.00
2022-08-18T23:25:15.856Z,20.60
2022-08-18T23:27:43.255Z,19.13
2022-08-18T23:30:11.296Z,19.75
2022-08-18T23:32:38.316Z,20.88
2022-08-18T23:35:06.989Z,20.10
2022-08-18T23:37:34.047Z,20.15
2022-08-18T23:40:01.070Z,17.20
2022-08-18T23:42:28.195Z,20.52
2022-08-18T23:45:03.388Z,19.50
2022-08-18T23:47:30.543Z,15.90
2022-08-18T23:49:57.851Z,15.73
2022-08-18T23:52:25.017Z,17.70
2022-08-18T23:54:52.139Z,19.10
2022-08-18T23:57:19.201Z,15.93
2022-08-18T23:59:46.327Z,19.67
